Time;durP1;ratioP1;P1;durP2;ratioP2;P2;SDS_P1;SDS_P2;PMS_P1;PMS_P2;Temp;Humidity;BMP_temperature;BMP_pressure;BME280_temperature;BME280_humidity;BME280_pressure;Samples;Min_cycle;Max_cycle;Signal;HPM_P1;HPM_P2
2021/08/19 00:01:48;;;;;;;18.02;13.45;;;16.20;99.90;;;;;;5087072;28;20036;-59
2021/08/19 00:04:16;;;;;;;17.55;12.90;;;16.20;99.90;;;;;;5069102;28;20130;-60
2021/08/19 00:06:45;;;;;;;18.20;12.82;;;16.20;99.90;;;;;;5092895;28;20497;-60
2021/08/19 00:09:11;;;;;;;17.02;12.82;;;16.20;99.90;;;;;;5089426;28;20075;-60
2021/08/19 00:11:38;;;;;;;16.35;11.70;;;16.20;99.90;;;;;;5092272;28;20052;-59
2021/08/19 00:14:07;;;;;;;13.48;11.20;;;16.20;99.90;;;;;;5092463;28;20051;-60
2021/08/19 00:16:33;;;;;;;15.07;12.00;;;16.20;99.90;;;;;;5091167;28;20097;-59
2021/08/19 00:18:59;;;;;;;13.07;11.38;;;16.20;99.90;;;;;;5097080;28;20484;-60
2021/08/19 00:21:26;;;;;;;18.20;12.20;;;16.30;99.90;;;;;;5071379;28;20070;-60
2021/08/19 00:23:52;;;;;;;14.02;11.20;;;16.20;99.90;;;;;;5076085;28;20075;-58
2021/08/19 00:26:18;;;;;;;14.20;11.38;;;16.20;99.90;;;;;;5090403;28;20109;-60
2021/08/19 00:28:44;;;;;;;13.57;11.65;;;16.20;99.90;;;;;;5091254;28;20048;-61
2021/08/19 00:31:13;;;;;;;13.95;11.60;;;16.20;99.90;;;;;;5091197;28;20484;-61
2021/08/19 00:33:39;;;;;;;11.50;10.15;;;16.20;99.90;;;;;;5091251;28;20048;-60
2021/08/19 00:36:08;;;;;;;14.10;12.23;;;16.20;99.90;;;;;;5091063;28;20059;-61
2021/08/19 00:38:36;;;;;;;14.65;12.23;;;16.20;99.90;;;;;;5091209;28;20442;-60
2021/08/19 00:41:04;;;;;;;11.52;10.35;;;16.20;99.90;;;;;;5091266;28;20060;-59
2021/08/19 00:43:36;;;;;;;13.35;10.98;;;16.20;99.90;;;;;;5078906;28;20075;-60
2021/08/19 00:46:22;;;;;;;14.20;10.90;;;16.20;99.90;;;;;;5091982;28;20051;-59
2021/08/19 00:48:53;;;;;;;14.85;10.25;;;16.20;99.90;;;;;;5091177;28;20378;-58
2021/08/19 00:51:22;;;;;;;14.93;9.70;;;16.30;99.90;;;;;;5071866;28;20057;-60
2021/08/19 00:53:50;;;;;;;14.57;10.55;;;16.30;99.90;;;;;;5091311;28;20771;-59
2021/08/19 00:56:17;;;;;;;11.43;9.60;;;16.20;99.90;;;;;;5089367;28;20549;-57
2021/08/19 00:58:43;;;;;;;12.98;9.10;;;16.30;99.90;;;;;;5091217;28;20067;-61
2021/08/19 01:01:10;;;;;;;9.90;8.85;;;16.30;99.90;;;;;;5089736;28;20052;-60
2021/08/19 01:03:38;;;;;;;13.70;9.07;;;16.30;99.90;;;;;;5090933;28;20427;-59
2021/08/19 01:06:04;;;;;;;13.85;9.20;;;16.30;99.90;;;;;;5072173;28;20047;-61
2021/08/19 01:08:33;;;;;;;10.95;8.85;;;16.30;99.90;;;;;;5090834;28;20052;-61
2021/08/19 01:11:03;;;;;;;12.93;8.57;;;16.30;99.90;;;;;;5090851;28;20051;-60
2021/08/19 01:13:31;;;;;;;10.48;7.97;;;16.30;99.90;;;;;;5090983;28;20052;-61
2021/08/19 01:15:58;;;;;;;10.20;8.50;;;16.30;99.90;;;;;;5089222;28;20048;-57
2021/08/19 01:18:24;;;;;;;10.60;7.90;;;16.30;99.90;;;;;;5089458;28;20048;-58
2021/08/19 01:20:50;;;;;;;11.82;8.55;;;16.30;99.90;;;;;;5088864;28;20682;-59
2021/08/19 01:23:17;;;;;;;13.13;7.93;;;16.30;99.90;;;;;;5089649;28;20048;-58
2021/08/19 01:25:44;;;;;;;8.68;7.60;;;16.30;99.90;;;;;;5069538;28;20052;-58
2021/08/19 01:28:10;;;;;;;9.27;8.13;;;16.30;99.90;;;;;;5090069;28;20443;-60
2021/08/19 01:30:36;;;;;;;10.05;7.88;;;16.30;99.90;;;;;;5088767;28;20065;-59
2021/08/19 01:33:04;;;;;;;9.43;7.43;;;16.30;99.90;;;;;;5084334;28;20060;-58
2021/08/19 01:35:30;;;;;;;9.80;7.68;;;16.30;99.90;;;;;;5089109;28;20071;-60
2021/08/19 01:37:57;;;;;;;10.60;9.45;;;16.30;99.90;;;;;;5088925;28;20047;-59
2021/08/19 01:40:26;;;;;;;11.10;8.13;;;16.30;99.90;;;;;;5089587;28;20102;-59
2021/08/19 01:42:52;;;;;;;8.63;7.53;;;16.30;99.90;;;;;;5088556;28;20496;-58
2021/08/19 01:45:18;;;;;;;12.98;7.88;;;16.30;99.90;;;;;;5088519;28;20059;-59
2021/08/19 01:47:51;;;;;;;11.88;8.35;;;16.30;99.90;;;;;;5087085;28;20047;-59
2021/08/19 01:50:17;;;;;;;12.68;8.25;;;16.30;99.90;;;;;;5075682;28;20548;-60
2021/08/19 01:52:46;;;;;;;10.48;9.07;;;16.30;99.90;;;;;;5078508;28;20040;-60
2021/08/19 01:55:13;;;;;;;11.38;8.55;;;16.30;99.90;;;;;;5088677;28;20056;-61
2021/08/19 01:57:39;;;;;;;10.80;8.55;;;16.30;99.90;;;;;;5093310;28;20039;-60
2021/08/19 02:00:09;;;;;;;10.18;8.43;;;16.30;99.90;;;;;;5089168;28;20684;-58
2021/08/19 02:02:38;;;;;;;10.38;7.82;;;16.40;99.90;;;;;;5089560;28;20055;-59
2021/08/19 02:05:04;;;;;;;12.27;8.93;;;16.30;99.90;;;;;;5090176;28;20424;-59
2021/08/19 02:07:31;;;;;;;9.40;8.30;;;16.30;99.90;;;;;;5089266;28;20048;-59
2021/08/19 02:09:59;;;;;;;13.27;8.77;;;16.30;99.90;;;;;;5092388;28;20105;-59
2021/08/19 02:12:25;;;;;;;9.90;8.38;;;16.30;99.90;;;;;;5088289;28;20052;-59
2021/08/19 02:14:51;;;;;;;10.20;9.05;;;16.30;99.90;;;;;;5088046;28;20047;-59
2021/08/19 02:17:20;;;;;;;11.05;8.32;;;16.30;99.90;;;;;;5088926;28;20048;-59
2021/08/19 02:19:46;;;;;;;10.00;8.60;;;16.30;99.90;;;;;;5087892;28;20082;-58
2021/08/19 02:22:15;;;;;;;13.07;8.63;;;16.30;99.90;;;;;;5088052;28;20083;-59
2021/08/19 02:24:41;;;;;;;11.63;9.20;;;16.30;99.90;;;;;;5087548;28;20048;-60
2021/08/19 02:27:07;;;;;;;12.68;10.05;;;16.30;99.90;;;;;;5096175;28;20451;-59
2021/08/19 02:29:34;;;;;;;11.40;9.55;;;16.30;99.90;;;;;;5088750;28;20046;-59
2021/08/19 02:32:00;;;;;;;11.48;9.50;;;16.30;99.90;;;;;;5086180;28;20066;-60
2021/08/19 02:34:28;;;;;;;12.38;9.85;;;16.30;99.90;;;;;;5089211;28;20082;-59
2021/08/19 02:36:57;;;;;;;12.05;9.60;;;16.30;99.90;;;;;;5090463;28;20048;-58
2021/08/19 02:39:23;;;;;;;13.57;10.77;;;16.30;99.90;;;;;;5087525;28;20142;-59
2021/08/19 02:41:51;;;;;;;12.48;11.18;;;16.20;99.90;;;;;;5088719;28;20056;-60
2021/08/19 02:44:17;;;;;;;12.80;11.50;;;16.20;99.90;;;;;;5071862;28;20101;-59
2021/08/19 02:46:46;;;;;;;13.38;11.88;;;16.20;99.90;;;;;;5090512;28;20055;-58
2021/08/19 02:49:12;;;;;;;14.88;12.35;;;16.20;99.90;;;;;;5090022;28;20048;-60
2021/08/19 02:51:38;;;;;;;13.80;12.07;;;16.20;99.90;;;;;;5087945;28;20052;-59
2021/08/19 02:54:04;;;;;;;14.40;13.00;;;16.10;99.90;;;;;;5091278;28;20043;-59
2021/08/19 02:56:30;;;;;;;15.88;12.80;;;16.10;99.90;;;;;;5087280;28;20048;-59
2021/08/19 02:58:56;;;;;;;16.02;14.52;;;16.10;99.90;;;;;;5085932;28;20126;-59
2021/08/19 03:01:25;;;;;;;15.80;14.15;;;16.10;99.90;;;;;;5079365;28;20572;-58
2021/08/19 03:03:51;;;;;;;16.75;14.88;;;16.00;99.90;;;;;;5091038;28;20040;-59
2021/08/19 03:06:17;;;;;;;18.35;15.50;;;16.00;99.90;;;;;;5086292;28;20075;-58
2021/08/19 03:08:43;;;;;;;18.75;16.88;;;16.00;99.90;;;;;;5087214;28;20056;-57
2021/08/19 03:11:09;;;;;;;19.92;17.83;;;16.00;99.90;;;;;;5070500;28;20051;-59
2021/08/19 03:13:38;;;;;;;20.67;18.65;;;15.90;99.90;;;;;;5087968;28;20127;-58
2021/08/19 03:16:04;;;;;;;20.17;17.30;;;15.90;99.90;;;;;;5087273;28;20051;-57
2021/08/19 03:18:32;;;;;;;20.33;18.27;;;15.90;99.90;;;;;;5086669;28;20048;-59
2021/08/19 03:21:20;;;;;;;20.27;18.27;;;15.90;99.90;;;;;;5069039;28;20058;-58
2021/08/19 03:23:47;;;;;;;22.13;20.00;;;15.90;99.90;;;;;;5087607;28;20492;-58
2021/08/19 03:26:15;;;;;;;22.45;20.45;;;15.90;99.90;;;;;;5085726;28;20149;-57
2021/08/19 03:28:44;;;;;;;24.20;21.92;;;15.90;99.90;;;;;;5086130;28;20163;-59
2021/08/19 03:31:11;;;;;;;23.80;21.35;;;15.90;99.90;;;;;;5086101;28;20056;-58
2021/08/19 03:33:37;;;;;;;25.60;23.10;;;15.90;99.90;;;;;;5087239;28;20052;-60
2021/08/19 03:36:05;;;;;;;25.58;23.08;;;15.80;99.90;;;;;;5086531;28;20048;-58
2021/08/19 03:38:32;;;;;;;25.58;23.13;;;15.80;99.90;;;;;;5090745;28;20082;-57
2021/08/19 03:40:58;;;;;;;25.38;22.80;;;15.80;99.90;;;;;;5065436;28;20072;-58
2021/08/19 03:43:31;;;;;;;25.83;23.23;;;15.80;99.90;;;;;;5087502;28;20139;-58
2021/08/19 03:45:57;;;;;;;26.15;23.55;;;15.80;99.90;;;;;;5086661;28;20044;-59
2021/08/19 03:48:24;;;;;;;24.80;22.35;;;15.80;99.90;;;;;;5062147;28;20502;-58
2021/08/19 03:50:50;;;;;;;24.98;22.45;;;15.80;99.90;;;;;;5084368;28;20086;-59
2021/08/19 03:53:17;;;;;;;26.42;23.83;;;15.80;99.90;;;;;;5091061;28;20048;-58
2021/08/19 03:55:46;;;;;;;27.83;25.02;;;15.80;99.90;;;;;;5087657;28;20044;-58
2021/08/19 03:58:12;;;;;;;28.60;25.50;;;15.80;99.90;;;;;;5086845;28;20071;-58
2021/08/19 04:00:45;;;;;;;28.77;25.77;;;15.80;99.90;;;;;;5086235;28;20525;-59
2021/08/19 04:03:13;;;;;;;27.95;25.15;;;15.80;99.90;;;;;;5087017;28;20044;-59
2021/08/19 04:05:39;;;;;;;30.10;27.27;;;15.80;99.90;;;;;;5087665;28;20543;-59
2021/08/19 04:08:06;;;;;;;29.88;27.02;;;15.80;99.90;;;;;;5086181;28;20048;-59
2021/08/19 04:10:32;;;;;;;29.52;26.63;;;15.80;99.90;;;;;;5085768;28;20080;-58
2021/08/19 04:12:58;;;;;;;29.15;26.30;;;15.80;99.90;;;;;;5087512;28;20044;-58
2021/08/19 04:15:24;;;;;;;30.38;27.40;;;15.80;99.90;;;;;;5086680;28;20135;-57
2021/08/19 04:17:53;;;;;;;31.83;28.73;;;15.80;99.90;;;;;;5082251;28;20056;-58
2021/08/19 04:20:20;;;;;;;31.33;28.27;;;15.90;99.90;;;;;;5067064;28;20053;-57
2021/08/19 04:22:51;;;;;;;30.45;27.52;;;15.90;99.90;;;;;;5086147;28;20040;-59
2021/08/19 04:25:17;;;;;;;30.88;27.90;;;15.90;99.90;;;;;;5094850;28;20056;-59
2021/08/19 04:27:46;;;;;;;31.80;28.80;;;15.90;99.90;;;;;;5085068;28;20050;-60
2021/08/19 04:30:13;;;;;;;32.83;29.58;;;15.90;99.90;;;;;;5052705;28;20048;-60
2021/08/19 04:32:39;;;;;;;31.90;28.98;;;15.90;99.90;;;;;;5085713;28;20052;-60
2021/08/19 04:35:06;;;;;;;34.25;30.92;;;15.90;99.90;;;;;;5084340;28;20075;-57
2021/08/19 04:37:34;;;;;;;32.58;29.35;;;15.90;99.90;;;;;;5079999;28;20420;-60
2021/08/19 04:40:04;;;;;;;31.10;28.20;;;15.90;99.90;;;;;;5086468;28;20048;-59
2021/08/19 04:42:32;;;;;;;32.42;29.33;;;16.00;99.90;;;;;;5087153;28;20048;-61
2021/08/19 04:44:58;;;;;;;32.53;29.52;;;16.00;99.90;;;;;;5085673;28;20084;-60
2021/08/19 04:47:25;;;;;;;33.20;30.00;;;16.00;99.90;;;;;;5086035;28;20044;-58
2021/08/19 04:49:57;;;;;;;31.95;28.75;;;16.00;99.90;;;;;;5087182;28;20051;-60
2021/08/19 04:52:24;;;;;;;34.10;30.67;;;16.00;99.90;;;;;;5085190;28;20075;-59
2021/08/19 04:54:50;;;;;;;30.20;27.27;;;16.10;99.90;;;;;;5083755;28;20044;-59
2021/08/19 04:57:16;;;;;;;31.85;28.05;;;16.10;99.90;;;;;;5088953;28;20052;-61
2021/08/19 04:59:44;;;;;;;31.02;27.92;;;16.10;99.90;;;;;;5090533;28;20052;-60
2021/08/19 05:02:10;;;;;;;29.50;26.58;;;16.10;99.90;;;;;;5089625;28;20044;-57
2021/08/19 05:04:36;;;;;;;30.42;27.52;;;16.10;99.90;;;;;;5088798;28;20048;-59
2021/08/19 05:07:04;;;;;;;29.15;26.25;;;16.10;99.90;;;;;;5089969;28;20048;-60
2021/08/19 05:09:30;;;;;;;29.45;26.55;;;16.10;99.90;;;;;;5090843;28;20052;-59
2021/08/19 05:11:59;;;;;;;27.42;24.73;;;16.20;99.90;;;;;;5089501;28;20070;-59
2021/08/19 05:14:25;;;;;;;27.35;24.65;;;16.20;99.90;;;;;;5098284;28;20040;-61
2021/08/19 05:16:53;;;;;;;27.20;24.55;;;16.20;99.90;;;;;;5089597;28;20435;-58
2021/08/19 05:19:19;;;;;;;24.67;22.38;;;16.20;99.90;;;;;;5089379;28;20040;-60
2021/08/19 05:21:50;;;;;;;25.88;23.38;;;16.20;99.90;;;;;;5089705;28;20098;-60
2021/08/19 05:24:17;;;;;;;25.58;23.08;;;16.20;99.90;;;;;;5090408;28;20044;-60
2021/08/19 05:26:43;;;;;;;24.85;22.42;;;16.20;99.90;;;;;;5095955;28;20118;-59
2021/08/19 05:29:10;;;;;;;24.73;22.27;;;16.20;99.90;;;;;;5087753;28;20072;-61
2021/08/19 05:31:36;;;;;;;26.70;24.10;;;16.20;99.90;;;;;;5089207;28;20060;-58
2021/08/19 05:34:07;;;;;;;25.40;23.00;;;16.30;99.90;;;;;;5083817;28;20536;-58
2021/08/19 05:36:35;;;;;;;24.63;22.25;;;16.30;99.90;;;;;;5096107;28;20056;-60
2021/08/19 05:39:03;;;;;;;25.02;22.75;;;16.40;99.90;;;;;;5090520;28;20063;-59
2021/08/19 05:41:30;;;;;;;24.83;22.27;;;16.40;99.90;;;;;;5090188;28;20051;-60
2021/08/19 05:43:57;;;;;;;25.98;23.58;;;16.40;99.90;;;;;;5089929;28;20560;-59
2021/08/19 05:46:27;;;;;;;25.83;23.42;;;16.40;99.90;;;;;;5089639;28;20752;-60
2021/08/19 05:48:53;;;;;;;26.55;24.05;;;16.40;99.90;;;;;;5089233;28;20044;-60
2021/08/19 05:51:22;;;;;;;26.02;23.45;;;16.40;99.90;;;;;;5071917;28;20066;-60
2021/08/19 05:53:48;;;;;;;26.65;24.15;;;16.50;99.90;;;;;;5093250;28;20405;-59
2021/08/19 05:56:17;;;;;;;27.58;24.88;;;16.40;99.90;;;;;;5087890;28;20044;-59
2021/08/19 05:58:44;;;;;;;30.30;27.33;;;16.40;99.90;;;;;;5087657;28;20051;-59
2021/08/19 06:01:10;;;;;;;37.08;33.40;;;16.40;99.90;;;;;;5087781;28;20071;-59
2021/08/19 06:03:36;;;;;;;33.95;29.08;;;16.50;99.90;;;;;;5089288;28;20048;-60
2021/08/19 06:06:02;;;;;;;40.63;36.42;;;16.50;99.90;;;;;;5095552;28;20055;-58
2021/08/19 06:08:32;;;;;;;29.02;26.10;;;16.50;99.90;;;;;;5086754;28;20673;-57
2021/08/19 06:10:59;;;;;;;29.23;26.25;;;16.50;99.90;;;;;;5088465;28;20572;-58
2021/08/19 06:13:25;;;;;;;37.17;33.42;;;16.50;99.90;;;;;;5070983;28;20048;-60
2021/08/19 06:15:51;;;;;;;39.17;35.38;;;16.50;99.90;;;;;;5088887;28;20113;-59
2021/08/19 06:18:18;;;;;;;29.65;26.58;;;16.60;99.90;;;;;;5089150;28;20072;-58
2021/08/19 06:20:44;;;;;;;30.60;27.45;;;16.50;99.90;;;;;;5088024;28;20044;-59
2021/08/19 06:23:11;;;;;;;41.72;37.58;;;16.50;99.90;;;;;;5087330;28;20113;-60
2021/08/19 06:25:44;;;;;;;39.70;35.13;;;16.50;99.90;;;;;;5087287;28;20048;-56
2021/08/19 06:28:14;;;;;;;49.78;44.58;;;16.50;99.90;;;;;;5087478;28;20064;-58
2021/08/19 06:30:41;;;;;;;52.28;47.00;;;16.50;99.90;;;;;;5088263;28;20048;-59
2021/08/19 06:33:10;;;;;;;33.05;29.65;;;16.60;99.90;;;;;;5087499;28;20152;-58
2021/08/19 06:35:37;;;;;;;34.38;30.75;;;16.60;99.90;;;;;;5087771;28;20681;-58
2021/08/19 06:38:07;;;;;;;29.65;26.55;;;16.60;99.90;;;;;;5087356;28;20048;-59
2021/08/19 06:40:33;;;;;;;30.50;27.33;;;16.60;99.90;;;;;;5086560;28;20129;-59
2021/08/19 06:43:05;;;;;;;34.67;31.05;;;16.60;99.90;;;;;;5086479;28;20044;-60
2021/08/19 06:45:31;;;;;;;33.97;30.42;;;16.60;99.90;;;;;;5085897;28;20560;-57
2021/08/19 06:47:57;;;;;;;43.92;39.35;;;16.50;99.90;;;;;;5088878;28;20683;-60
2021/08/19 06:50:23;;;;;;;44.08;39.38;;;16.50;99.90;;;;;;5085358;28;20050;-59
2021/08/19 06:52:49;;;;;;;69.30;61.97;;;16.50;99.90;;;;;;5086981;28;20063;-60
2021/08/19 06:55:16;;;;;;;37.50;32.63;;;16.50;99.90;;;;;;5088536;28;20055;-58
2021/08/19 06:57:42;;;;;;;39.53;35.58;;;16.60;99.90;;;;;;5083801;28;20051;-60
2021/08/19 07:00:09;;;;;;;30.65;27.35;;;16.60;99.90;;;;;;5087353;28;20128;-58
2021/08/19 07:02:37;;;;;;;33.72;30.50;;;16.60;99.90;;;;;;5086716;28;20507;-59
2021/08/19 07:05:05;;;;;;;28.20;25.40;;;16.60;99.90;;;;;;5086314;28;20047;-59
2021/08/19 07:07:32;;;;;;;27.35;24.73;;;16.70;99.90;;;;;;5092090;28;20080;-59
2021/08/19 07:10:01;;;;;;;27.75;25.23;;;16.70;99.90;;;;;;5087739;28;20052;-60
2021/08/19 07:12:28;;;;;;;28.48;25.65;;;16.80;99.90;;;;;;5088675;28;20633;-63
2021/08/19 07:15:00;;;;;;;83.25;75.05;;;16.80;99.90;;;;;;5090048;28;20152;-59
2021/08/19 07:17:28;;;;;;;45.33;40.78;;;16.80;99.90;;;;;;5086346;28;20448;-58
2021/08/19 07:19:57;;;;;;;34.03;30.83;;;16.80;99.90;;;;;;5086603;28;20494;-59
2021/08/19 07:22:26;;;;;;;29.95;26.75;;;16.80;99.90;;;;;;5086258;28;20559;-61
2021/08/19 07:24:52;;;;;;;34.45;30.80;;;16.80;99.90;;;;;;5088979;28;20043;-62
2021/08/19 07:27:21;;;;;;;29.85;26.08;;;16.80;99.90;;;;;;5086660;28;20767;-59
2021/08/19 07:29:47;;;;;;;30.02;26.83;;;16.70;99.90;;;;;;5088158;28;20139;-60
2021/08/19 07:32:19;;;;;;;30.20;27.02;;;16.70;99.90;;;;;;5082202;28;20051;-60
2021/08/19 07:34:47;;;;;;;29.30;26.20;;;16.70;99.90;;;;;;5089087;28;20130;-60
2021/08/19 07:37:14;;;;;;;28.00;24.52;;;16.70;99.90;;;;;;5069195;28;20101;-62
2021/08/19 07:39:41;;;;;;;31.55;25.42;;;16.70;99.90;;;;;;5087789;28;20083;-65
2021/08/19 07:42:08;;;;;;;28.10;24.90;;;16.60;99.90;;;;;;5091116;28;20492;-56
2021/08/19 07:44:34;;;;;;;34.85;26.55;;;16.60;99.90;;;;;;5094645;28;20075;-59
2021/08/19 07:47:00;;;;;;;32.42;27.90;;;16.60;99.90;;;;;;5084008;28;20048;-56
2021/08/19 07:49:27;;;;;;;50.25;30.15;;;16.60;99.90;;;;;;5083185;28;20044;-53
2021/08/19 07:51:53;;;;;;;34.45;29.45;;;16.70;99.90;;;;;;5087336;28;20056;-49
2021/08/19 07:54:19;;;;;;;35.70;28.38;;;16.70;99.90;;;;;;5086748;28;20492;-52
2021/08/19 07:56:46;;;;;;;33.05;28.30;;;16.70;99.90;;;;;;5087423;28;20070;-49
2021/08/19 07:59:12;;;;;;;37.80;30.58;;;16.70;99.90;;;;;;5087151;28;20802;-49
2021/08/19 08:01:38;;;;;;;37.20;31.63;;;16.70;99.90;;;;;;5087899;28;20165;-51
2021/08/19 08:04:08;;;;;;;37.90;30.02;;;16.80;99.90;;;;;;5087946;28;20762;-49
2021/08/19 08:06:38;;;;;;;41.58;31.50;;;16.80;99.90;;;;;;5086909;28;20480;-52
2021/08/19 08:09:05;;;;;;;43.58;33.38;;;16.80;99.90;;;;;;5104933;28;20052;-46
2021/08/19 08:11:32;;;;;;;43.70;33.53;;;16.80;99.90;;;;;;5075473;28;20049;-50
2021/08/19 08:13:58;;;;;;;49.50;33.55;;;16.80;99.90;;;;;;5073508;28;20047;-51
2021/08/19 08:16:25;;;;;;;39.83;32.00;;;16.80;99.90;;;;;;5089696;28;20545;-55
2021/08/19 08:18:51;;;;;;;38.67;31.08;;;16.90;99.90;;;;;;5092147;28;20047;-54
2021/08/19 08:21:20;;;;;;;37.28;32.35;;;16.90;99.90;;;;;;5086792;28;20051;-51
2021/08/19 08:23:48;;;;;;;41.50;32.33;;;17.00;99.90;;;;;;5087503;28;20131;-54
2021/08/19 08:26:14;;;;;;;40.05;31.52;;;17.00;99.90;;;;;;5088011;28;20044;-51
2021/08/19 08:28:44;;;;;;;36.85;29.90;;;17.10;99.90;;;;;;5086702;28;20147;-46
2021/08/19 08:31:11;;;;;;;37.40;30.92;;;17.20;99.90;;;;;;5095263;28;20059;-45
2021/08/19 08:33:38;;;;;;;39.90;32.42;;;17.40;99.90;;;;;;5091748;28;20595;-45
2021/08/19 08:36:04;;;;;;;39.38;31.85;;;17.40;99.90;;;;;;5091682;28;20040;-49
2021/08/19 08:38:31;;;;;;;367.17;330.65;;;17.50;99.90;;;;;;5079472;28;20047;-47
2021/08/19 08:40:58;;;;;;;48.08;39.80;;;17.50;99.90;;;;;;5090857;28;20481;-49
2021/08/19 08:43:25;;;;;;;66.40;55.33;;;17.50;99.90;;;;;;5087301;28;20047;-50
2021/08/19 08:45:52;;;;;;;40.70;33.80;;;17.50;99.90;;;;;;5097000;28;20066;-53
2021/08/19 08:48:24;;;;;;;42.85;34.45;;;17.40;99.90;;;;;;5091121;28;20472;-49
2021/08/19 08:50:52;;;;;;;52.47;46.13;;;17.40;99.90;;;;;;5090972;28;20134;-48
2021/08/19 08:53:20;;;;;;;50.35;44.72;;;17.40;99.90;;;;;;5090410;28;20526;-50
2021/08/19 08:55:46;;;;;;;40.03;32.83;;;17.50;99.90;;;;;;5090637;28;20051;-50
2021/08/19 08:58:13;;;;;;;39.47;31.63;;;17.50;99.90;;;;;;5095785;28;20047;-50
2021/08/19 09:00:46;;;;;;;36.95;30.55;;;17.50;99.90;;;;;;5090582;28;20055;-50
2021/08/19 09:03:15;;;;;;;47.05;40.58;;;17.60;99.90;;;;;;5090687;28;20405;-50
2021/08/19 09:05:50;;;;;;;40.30;34.70;;;17.60;99.90;;;;;;5090124;28;20048;-51
2021/08/19 09:08:21;;;;;;;39.20;32.60;;;17.70;99.90;;;;;;5090229;28;20473;-51
2021/08/19 09:10:50;;;;;;;41.15;32.53;;;17.80;99.90;;;;;;5090139;28;20159;-51
2021/08/19 09:13:19;;;;;;;37.97;32.38;;;17.90;99.90;;;;;;5090632;28;20506;-47
2021/08/19 09:15:47;;;;;;;58.88;52.63;;;17.90;99.90;;;;;;5086258;28;20073;-52
2021/08/19 09:18:34;;;;;;;56.35;50.40;;;18.00;99.90;;;;;;5091192;28;20048;-49
2021/08/19 09:21:15;;;;;;;48.70;42.70;;;18.00;99.90;;;;;;5092657;28;20044;-48
2021/08/19 09:23:41;;;;;;;31.95;28.77;;;18.10;99.90;;;;;;5091279;28;20044;-48
2021/08/19 09:26:10;;;;;;;36.42;29.02;;;18.00;99.90;;;;;;5095186;28;20458;-47
2021/08/19 09:28:36;;;;;;;31.38;26.08;;;18.00;99.90;;;;;;5096980;28;20550;-46
2021/08/19 09:31:11;;;;;;;35.08;25.08;;;18.20;99.90;;;;;;5097078;28;20588;-54
2021/08/19 09:33:41;;;;;;;34.10;26.50;;;18.20;99.90;;;;;;5090466;28;20492;-55
2021/08/19 09:36:07;;;;;;;34.40;24.60;;;18.20;99.90;;;;;;5071032;28;20050;-56
2021/08/19 09:38:39;;;;;;;31.00;24.27;;;18.20;99.90;;;;;;5090165;28;20557;-56
2021/08/19 09:41:13;;;;;;;27.08;22.13;;;18.20;99.90;;;;;;5089987;28;20053;-57
2021/08/19 09:43:46;;;;;;;29.08;23.35;;;18.10;99.90;;;;;;5080036;28;20036;-56
2021/08/19 09:46:36;;;;;;;34.45;24.73;;;18.10;99.90;;;;;;5090351;28;20121;-56
2021/08/19 09:49:24;;;;;;;31.48;24.15;;;18.10;99.90;;;;;;4988222;28;20058;-56
2021/08/19 09:52:13;;;;;;;30.70;26.05;;;18.30;99.90;;;;;;4988139;28;20062;-52
2021/08/19 09:54:41;;;;;;;81.57;72.90;;;18.40;99.90;;;;;;4987214;28;20140;-53
2021/08/19 09:57:09;;;;;;;29.27;24.55;;;18.40;99.90;;;;;;4971632;28;20137;-49
2021/08/19 09:59:38;;;;;;;43.80;36.53;;;18.50;99.90;;;;;;4975620;28;20054;-52
2021/08/19 10:02:13;;;;;;;28.48;24.33;;;18.40;99.90;;;;;;4993515;28;20046;-51
2021/08/19 10:04:39;;;;;;;32.08;27.65;;;18.40;99.90;;;;;;4971058;28;20046;-51
2021/08/19 10:07:05;;;;;;;29.45;24.33;;;18.40;99.90;;;;;;4987198;28;20129;-51
2021/08/19 10:09:33;;;;;;;30.50;22.48;;;18.30;99.90;;;;;;4989704;28;20057;-53
2021/08/19 10:12:02;;;;;;;27.40;20.30;;;18.30;99.90;;;;;;4970502;28;20403;-56
2021/08/19 10:14:30;;;;;;;31.00;23.80;;;18.40;99.90;;;;;;4976626;28;20057;-54
2021/08/19 10:16:58;;;;;;;23.27;20.67;;;18.40;99.90;;;;;;4988236;28;20054;-52
2021/08/19 10:19:33;;;;;;;23.93;19.27;;;18.50;99.90;;;;;;4994564;28;20046;-54
2021/08/19 10:22:08;;;;;;;25.88;21.98;;;18.60;99.90;;;;;;4987318;28;20053;-55
2021/08/19 10:24:38;;;;;;;21.90;19.17;;;18.60;99.90;;;;;;4986175;28;20192;-54
2021/08/19 10:27:08;;;;;;;26.15;18.27;;;18.60;99.90;;;;;;5058684;28;20048;-56
2021/08/19 10:29:43;;;;;;;23.95;18.65;;;18.60;99.90;;;;;;5084217;28;20492;-55
2021/08/19 10:32:29;;;;;;;21.40;17.45;;;18.60;99.90;;;;;;5071991;28;20236;-56
2021/08/19 10:35:00;;;;;;;21.15;18.38;;;18.70;99.90;;;;;;5088649;28;20044;-54
2021/08/19 10:37:44;;;;;;;23.63;18.73;;;18.60;99.90;;;;;;5071585;28;20051;-55
2021/08/19 10:40:20;;;;;;;26.52;22.58;;;18.50;99.90;;;;;;5089510;28;20040;-55
2021/08/19 10:42:52;;;;;;;19.35;16.80;;;18.40;99.90;;;;;;5089405;28;20109;-56
2021/08/19 10:45:28;;;;;;;22.58;19.98;;;18.60;99.90;;;;;;5093800;28;20092;-56
2021/08/19 10:48:17;;;;;;;22.63;16.08;;;18.80;99.90;;;;;;5088817;28;20493;-57
2021/08/19 10:50:46;;;;;;;20.83;16.55;;;18.90;99.90;;;;;;5088601;28;20043;-55
2021/08/19 10:53:28;;;;;;;23.20;18.23;;;19.10;99.90;;;;;;5095853;28;20064;-55
2021/08/19 10:55:55;;;;;;;;;;;19.00;99.90;;;;;;5087506;28;20126;-55
2021/08/19 10:58:36;;;;;;;21.48;16.08;;;18.90;99.90;;;;;;5088016;28;19931;-56
2021/08/19 11:01:14;;;;;;;25.75;18.10;;;19.00;99.90;;;;;;5058173;28;20070;-57
2021/08/19 11:03:48;;;;;;;18.60;14.60;;;18.80;99.90;;;;;;5091307;28;20048;-56
2021/08/19 11:06:44;;;;;;;21.17;17.45;;;18.70;99.90;;;;;;5070934;28;20048;-57
2021/08/19 11:09:13;;;;;;;21.98;17.33;;;18.60;99.90;;;;;;5086750;28;20043;-57
2021/08/19 11:11:40;;;;;;;22.73;19.17;;;18.40;99.90;;;;;;5088280;28;20048;-57
2021/08/19 11:14:14;;;;;;;44.65;39.75;;;18.40;99.90;;;;;;5088416;28;20056;-57
2021/08/19 11:16:53;;;;;;;19.80;15.38;;;18.30;99.90;;;;;;5090127;28;20493;-57
2021/08/19 11:19:24;;;;;;;22.35;17.85;;;18.30;99.90;;;;;;5092088;28;20048;-57
2021/08/19 11:21:54;;;;;;;17.50;14.48;;;18.40;99.90;;;;;;5067076;28;20497;-57
2021/08/19 11:24:22;;;;;;;23.50;16.52;;;18.50;99.90;;;;;;5051196;28;20055;-57
2021/08/19 11:27:09;;;;;;;15.98;12.77;;;18.70;99.90;;;;;;5090438;28;20071;-57
2021/08/19 11:29:40;;;;;;;18.48;13.52;;;18.70;99.90;;;;;;5083309;28;20037;-58
2021/08/19 11:32:10;;;;;;;17.88;13.05;;;18.80;99.90;;;;;;5050309;28;20501;-57
2021/08/19 11:34:38;;;;;;;17.83;13.57;;;18.80;99.90;;;;;;5078571;28;20131;-57
2021/08/19 11:37:08;;;;;;;16.00;13.77;;;18.80;99.90;;;;;;5088980;28;20404;-57
2021/08/19 11:39:37;;;;;;;16.70;12.93;;;18.90;99.90;;;;;;5088648;28;20113;-59
2021/08/19 11:42:07;;;;;;;59.65;53.50;;;18.80;99.90;;;;;;5049989;28;20063;-57
2021/08/19 11:44:36;;;;;;;16.60;14.82;;;18.70;99.90;;;;;;5072665;28;20047;-58
2021/08/19 11:47:04;;;;;;;18.83;15.10;;;18.50;99.90;;;;;;5076503;28;20055;-60
2021/08/19 11:49:33;;;;;;;15.75;12.05;;;18.30;99.90;;;;;;5074275;28;20048;-57
2021/08/19 11:52:03;;;;;;;15.88;13.00;;;18.00;99.90;;;;;;5093730;28;20048;-56
2021/08/19 11:54:50;;;;;;;18.83;14.15;;;18.00;99.90;;;;;;5094824;28;20044;-52
2021/08/19 11:57:23;;;;;;;18.88;13.10;;;17.90;99.90;;;;;;5088832;28;20040;-50
2021/08/19 12:00:15;;;;;;;17.88;12.45;;;17.90;99.90;;;;;;5066838;28;20056;-51
2021/08/19 12:02:59;;;;;;;15.80;12.73;;;18.00;99.90;;;;;;5061529;28;20496;-52
2021/08/19 12:05:25;;;;;;;19.35;13.55;;;18.10;99.90;;;;;;5065823;28;20576;-51
2021/08/19 12:07:57;;;;;;;19.05;14.35;;;18.20;99.90;;;;;;5075125;28;20139;-52
2021/08/19 12:10:24;;;;;;;19.13;17.10;;;18.50;99.90;;;;;;5099112;28;20494;-51
2021/08/19 12:12:58;;;;;;;40.95;36.80;;;18.70;99.90;;;;;;5094108;28;20085;-58
2021/08/19 12:15:24;;;;;;;33.17;27.52;;;18.80;99.90;;;;;;5093637;28;20040;-48
2021/08/19 12:18:09;;;;;;;26.55;22.85;;;18.90;99.90;;;;;;5091528;28;20040;-53
2021/08/19 12:20:37;;;;;;;13.65;12.13;;;19.00;99.90;;;;;;5092102;28;20071;-50
2021/08/19 12:23:20;;;;;;;15.80;12.02;;;19.00;99.90;;;;;;5092403;28;20490;-48
2021/08/19 12:25:47;;;;;;;15.27;12.75;;;18.80;99.90;;;;;;5074927;28;20492;-49
2021/08/19 12:28:16;;;;;;;16.75;12.07;;;18.90;99.90;;;;;;5071900;28;20059;-53
2021/08/19 12:31:00;;;;;;;61.88;55.50;;;18.80;99.90;;;;;;5093714;28;20040;-56
2021/08/19 12:33:31;;;;;;;20.52;17.42;;;18.80;99.90;;;;;;5095561;28;20454;-56
2021/08/19 12:36:17;;;;;;;16.98;12.70;;;18.70;99.90;;;;;;5091721;28;20082;-53
2021/08/19 12:38:48;;;;;;;14.73;10.52;;;18.80;99.90;;;;;;5078256;28;20498;-49